Time;durP1;ratioP1;P1;durP2;ratioP2;P2;SDS_P1;SDS_P2;PMS_P1;PMS_P2;Temp;Humidity;BMP_temperature;BMP_pressure;BME280_temperature;BME280_humidity;BME280_pressure;Samples;Min_cycle;Max_cycle;Signal;HPM_P1;HPM_P2
2022/07/10 00:02:11;;;;;;;3.13;0.93;;;;;;;;;;5095308;28;20048;-74
2022/07/10 00:04:38;;;;;;;1.93;0.60;;;;;;;;;;5095208;28;20048;-74
2022/07/10 00:07:05;;;;;;;0.95;0.80;;;;;;;;;;5094915;28;20401;-73
2022/07/10 00:09:32;;;;;;;0.70;0.60;;;;;;;;;;5094990;28;20097;-74
2022/07/10 00:11:58;;;;;;;1.38;0.50;;;;;;;;;;5093569;28;20097;-74
2022/07/10 00:14:25;;;;;;;0.50;0.50;;;;;;;;;;5094997;28;20044;-74
2022/07/10 00:16:52;;;;;;;0.80;0.70;;;;;;;;;;5094683;28;20044;-74
2022/07/10 00:19:18;;;;;;;0.93;0.67;;;;;;;;;;5094686;28;20047;-74
2022/07/10 00:21:45;;;;;;;0.85;0.70;;;;;;;;;;5093573;28;20280;-74
2022/07/10 00:24:11;;;;;;;0.80;0.70;;;;;;;;;;5094506;28;20039;-74
2022/07/10 00:26:38;;;;;;;0.80;0.80;;;;;;;;;;5094828;28;20052;-74
2022/07/10 00:29:05;;;;;;;0.70;0.70;;;;;;;;;;5094449;28;20101;-73
2022/07/10 00:31:31;;;;;;;0.50;0.50;;;;;;;;;;5094676;28;20125;-73
2022/07/10 00:33:58;;;;;;;0.60;0.60;;;;;;;;;;5094397;28;20139;-73
2022/07/10 00:36:24;;;;;;;0.73;0.57;;;;;;;;;;5094420;28;20296;-73
2022/07/10 00:38:51;;;;;;;0.77;0.65;;;;;;;;;;5093086;28;20461;-73
2022/07/10 00:41:18;;;;;;;5.30;0.75;;;;;;;;;;5094451;28;20445;-73
2022/07/10 00:43:57;;;;;;;0.82;0.52;;;;;;;;;;5094295;28;20047;-73
2022/07/10 00:46:24;;;;;;;0.75;0.75;;;;;;;;;;5094415;28;20058;-73
2022/07/10 00:48:51;;;;;;;0.85;0.65;;;;;;;;;;5093992;28;20105;-73
2022/07/10 00:51:20;;;;;;;1.13;0.63;;;;;;;;;;5093997;28;20109;-73
2022/07/10 00:53:47;;;;;;;2.25;0.80;;;;;;;;;;5094036;28;20044;-73
2022/07/10 00:56:19;;;;;;;0.90;0.70;;;;;;;;;;5093797;28;20055;-73
2022/07/10 00:58:46;;;;;;;0.60;0.60;;;;;;;;;;5094023;28;20098;-73
2022/07/10 01:01:12;;;;;;;1.13;0.68;;;;;;;;;;5094338;28;20043;-73
2022/07/10 01:03:40;;;;;;;0.57;0.52;;;;;;;;;;5093837;28;20542;-73
2022/07/10 01:06:06;;;;;;;0.95;0.43;;;;;;;;;;5094041;28;20132;-73
2022/07/10 01:08:33;;;;;;;1.63;0.60;;;;;;;;;;5094068;28;20059;-73
2022/07/10 01:11:00;;;;;;;;;;;;;;;;;;5094094;28;20056;-73
2022/07/10 01:13:27;;;;;;;0.63;0.63;;;;;;;;;;5093958;28;20371;-73
2022/07/10 01:15:53;;;;;;;0.97;0.67;;;;;;;;;;5093599;28;20446;-73
2022/07/10 01:18:20;;;;;;;0.77;0.70;;;;;;;;;;5093697;28;20450;-72
2022/07/10 01:20:50;;;;;;;0.75;0.75;;;;;;;;;;5093631;28;20047;-72
2022/07/10 01:23:17;;;;;;;2.10;0.60;;;;;;;;;;5093498;28;20048;-72
2022/07/10 01:25:43;;;;;;;4.15;0.70;;;;;;;;;;5093448;28;20048;-72
2022/07/10 01:28:10;;;;;;;0.98;0.85;;;;;;;;;;5093370;28;20097;-72
2022/07/10 01:30:36;;;;;;;1.65;0.88;;;;;;;;;;5093177;28;20457;-72
2022/07/10 01:33:03;;;;;;;0.93;0.60;;;;;;;;;;5093446;28;20043;-72
2022/07/10 01:35:29;;;;;;;0.40;0.40;;;;;;;;;;5093097;28;20048;-72
2022/07/10 01:37:56;;;;;;;0.77;0.77;;;;;;;;;;5092213;28;20044;-72
2022/07/10 01:40:22;;;;;;;1.15;0.80;;;;;;;;;;5093393;28;20439;-73
2022/07/10 01:42:49;;;;;;;0.70;0.70;;;;;;;;;;5093348;28;20048;-73
2022/07/10 01:45:16;;;;;;;0.63;0.63;;;;;;;;;;5093006;28;20044;-73
2022/07/10 01:47:43;;;;;;;0.70;0.70;;;;;;;;;;5092924;28;20047;-73
2022/07/10 01:50:10;;;;;;;0.50;0.50;;;;;;;;;;5092472;28;20449;-73
2022/07/10 01:52:37;;;;;;;0.70;0.70;;;;;;;;;;5093127;28;20109;-73
2022/07/10 01:55:03;;;;;;;1.05;0.50;;;;;;;;;;5093082;28;20077;-73
2022/07/10 01:57:30;;;;;;;0.70;0.70;;;;;;;;;;5092744;28;20052;-73
2022/07/10 01:59:56;;;;;;;1.80;0.77;;;;;;;;;;5092894;28;20168;-73
2022/07/10 02:02:23;;;;;;;0.80;0.80;;;;;;;;;;5092330;28;20044;-73
2022/07/10 02:04:50;;;;;;;1.40;0.80;;;;;;;;;;5092464;28;20048;-73
2022/07/10 02:07:17;;;;;;;1.35;0.80;;;;;;;;;;5092774;28;20040;-73
2022/07/10 02:09:44;;;;;;;0.60;0.60;;;;;;;;;;5092732;28;20052;-73
2022/07/10 02:12:12;;;;;;;1.02;0.70;;;;;;;;;;5092704;28;20450;-72
2022/07/10 02:14:40;;;;;;;0.75;0.75;;;;;;;;;;5092599;28;20458;-72
2022/07/10 02:17:06;;;;;;;1.83;1.00;;;;;;;;;;5092530;28;20445;-72
2022/07/10 02:19:33;;;;;;;1.38;0.85;;;;;;;;;;5092424;28;20052;-72
2022/07/10 02:22:00;;;;;;;2.47;1.50;;;;;;;;;;5092477;28;20081;-72
2022/07/10 02:24:27;;;;;;;2.25;1.60;;;;;;;;;;5092454;28;20451;-72
2022/07/10 02:26:55;;;;;;;1.70;1.60;;;;;;;;;;5091030;28;20102;-72
2022/07/10 02:29:23;;;;;;;2.80;1.58;;;;;;;;;;5092163;28;20059;-72
2022/07/10 02:31:49;;;;;;;1.17;1.08;;;;;;;;;;5092054;28;20048;-72
2022/07/10 02:34:16;;;;;;;2.15;1.20;;;;;;;;;;5090993;28;20122;-72
2022/07/10 02:36:42;;;;;;;1.30;1.20;;;;;;;;;;5092346;28;20051;-72
2022/07/10 02:39:09;;;;;;;1.58;1.25;;;;;;;;;;5092397;28;20149;-72
2022/07/10 02:41:36;;;;;;;1.45;1.27;;;;;;;;;;5091897;28;20074;-72
2022/07/10 02:44:03;;;;;;;0.77;0.77;;;;;;;;;;5091946;28;20073;-74
2022/07/10 02:46:29;;;;;;;1.73;1.30;;;;;;;;;;5092320;28;20389;-72
2022/07/10 02:48:56;;;;;;;1.13;1.00;;;;;;;;;;5091673;28;20113;-72
2022/07/10 02:51:24;;;;;;;1.10;0.93;;;;;;;;;;5092175;28;20052;-72
2022/07/10 02:53:50;;;;;;;1.67;1.00;;;;;;;;;;5091966;28;20129;-73
2022/07/10 02:56:17;;;;;;;2.72;0.90;;;;;;;;;;5092006;28;20090;-72
2022/07/10 02:58:43;;;;;;;1.00;0.90;;;;;;;;;;5091968;28;20446;-73
2022/07/10 03:01:10;;;;;;;1.10;0.95;;;;;;;;;;5091730;28;20051;-72
2022/07/10 03:03:36;;;;;;;1.20;1.10;;;;;;;;;;5091066;28;20059;-72
2022/07/10 03:06:03;;;;;;;1.88;0.77;;;;;;;;;;5091628;28;20483;-72
2022/07/10 03:08:29;;;;;;;1.20;1.10;;;;;;;;;;5091987;28;20106;-72
2022/07/10 03:10:56;;;;;;;1.92;0.90;;;;;;;;;;5091760;28;20097;-73
2022/07/10 03:13:22;;;;;;;1.15;1.05;;;;;;;;;;5091614;28;20047;-73
2022/07/10 03:15:49;;;;;;;1.13;0.80;;;;;;;;;;5091772;28;20052;-73
2022/07/10 03:18:15;;;;;;;1.38;1.27;;;;;;;;;;5091582;28;20036;-73
2022/07/10 03:20:42;;;;;;;2.33;0.90;;;;;;;;;;5091883;28;20063;-73
2022/07/10 03:23:08;;;;;;;0.90;0.85;;;;;;;;;;5091850;28;20384;-73
2022/07/10 03:25:35;;;;;;;1.45;0.88;;;;;;;;;;5091832;28;20117;-73
2022/07/10 03:28:01;;;;;;;1.40;0.98;;;;;;;;;;5091415;28;20097;-73
2022/07/10 03:30:28;;;;;;;1.58;1.00;;;;;;;;;;5091519;28;20466;-73
2022/07/10 03:32:54;;;;;;;1.38;1.15;;;;;;;;;;5091709;28;20457;-73
2022/07/10 03:35:21;;;;;;;1.92;1.40;;;;;;;;;;5091323;28;20101;-73
2022/07/10 03:37:48;;;;;;;1.38;1.00;;;;;;;;;;5091399;28;20381;-72
2022/07/10 03:40:14;;;;;;;1.30;1.20;;;;;;;;;;5091609;28;20133;-72
2022/07/10 03:42:41;;;;;;;1.85;1.35;;;;;;;;;;5091620;28;20094;-72
2022/07/10 03:45:07;;;;;;;1.67;1.33;;;;;;;;;;5091591;28;20093;-72
2022/07/10 03:47:34;;;;;;;1.67;1.23;;;;;;;;;;5091484;28;20044;-73
2022/07/10 03:50:00;;;;;;;1.40;1.30;;;;;;;;;;5091072;28;20052;-73
2022/07/10 03:52:27;;;;;;;1.45;1.35;;;;;;;;;;5091203;28;20047;-73
2022/07/10 03:54:54;;;;;;;2.00;1.23;;;;;;;;;;5091110;28;20455;-73
2022/07/10 04:00:06;;;;;;;1.90;1.35;;;;;;;;;;5091136;28;20048;-73
2022/07/10 04:02:33;;;;;;;1.20;1.10;;;;;;;;;;5091210;28;20575;-72
2022/07/10 04:04:59;;;;;;;1.67;1.33;;;;;;;;;;5091352;28;20047;-72
2022/07/10 04:07:26;;;;;;;1.73;1.63;;;;;;;;;;5091406;28;20121;-73
2022/07/10 04:09:52;;;;;;;1.10;0.93;;;;;;;;;;5091281;28;20105;-72
2022/07/10 04:12:19;;;;;;;1.85;1.30;;;;;;;;;;5091297;28;20352;-72
2022/07/10 04:14:47;;;;;;;2.08;1.35;;;;;;;;;;5093835;28;20074;-72
2022/07/10 04:17:13;;;;;;;2.75;1.75;;;;;;;;;;5094630;28;20106;-72
2022/07/10 04:19:40;;;;;;;5.05;2.80;;;;;;;;;;5094554;28;20097;-72
2022/07/10 04:22:06;;;;;;;6.55;2.33;;;;;;;;;;5094653;28;20052;-72
2022/07/10 04:24:33;;;;;;;2.60;1.80;;;;;;;;;;5094518;28;20441;-72
2022/07/10 04:26:59;;;;;;;3.50;2.30;;;;;;;;;;5094624;28;20048;-72
2022/07/10 04:29:26;;;;;;;4.22;2.42;;;;;;;;;;5094440;28;20101;-73
2022/07/10 04:31:52;;;;;;;1.90;1.67;;;;;;;;;;5094954;28;20461;-72
2022/07/10 04:34:19;;;;;;;2.53;1.90;;;;;;;;;;5094671;28;20055;-72
2022/07/10 04:36:45;;;;;;;3.17;2.08;;;;;;;;;;5094266;28;20377;-72
2022/07/10 04:39:12;;;;;;;3.38;2.30;;;;;;;;;;5094565;28;20101;-72
2022/07/10 04:41:38;;;;;;;4.82;2.17;;;;;;;;;;5094173;28;20089;-72
2022/07/10 04:44:05;;;;;;;3.45;2.00;;;;;;;;;;5094149;28;20557;-72
2022/07/10 04:46:31;;;;;;;4.40;1.90;;;;;;;;;;5094059;28;20454;-72
2022/07/10 04:48:58;;;;;;;3.83;2.30;;;;;;;;;;5094163;28;20062;-72
2022/07/10 04:51:24;;;;;;;3.92;2.70;;;;;;;;;;5094233;28;20192;-72
2022/07/10 04:53:51;;;;;;;3.83;2.53;;;;;;;;;;5094328;28;20044;-72
2022/07/10 04:56:17;;;;;;;5.00;2.50;;;;;;;;;;5094130;28;20046;-72
2022/07/10 04:58:44;;;;;;;4.93;2.55;;;;;;;;;;5093700;28;20453;-72
2022/07/10 05:01:17;;;;;;;4.25;2.38;;;;;;;;;;5094208;28;20063;-72
2022/07/10 05:03:44;;;;;;;4.63;2.63;;;;;;;;;;5093710;28;20044;-72
2022/07/10 05:06:10;;;;;;;4.28;2.35;;;;;;;;;;5094078;28;20101;-72
2022/07/10 05:08:37;;;;;;;3.13;1.75;;;;;;;;;;5093776;28;20097;-72
2022/07/10 05:11:04;;;;;;;2.78;2.33;;;;;;;;;;5093729;28;20058;-72
2022/07/10 05:13:31;;;;;;;4.45;3.80;;;;;;;;;;5093694;28;20446;-72
2022/07/10 05:15:57;;;;;;;6.43;4.55;;;;;;;;;;5093745;28;20044;-72
2022/07/10 05:18:24;;;;;;;6.43;5.28;;;;;;;;;;5093558;28;20044;-72
2022/07/10 05:20:50;;;;;;;5.25;4.20;;;;;;;;;;5093738;28;20052;-72
2022/07/10 05:23:17;;;;;;;5.40;4.00;;;;;;;;;;5093715;28;20048;-72
2022/07/10 05:25:43;;;;;;;6.28;4.93;;;;;;;;;;5092706;28;20081;-72
2022/07/10 05:28:12;;;;;;;6.65;4.63;;;;;;;;;;5093660;28;20446;-72
2022/07/10 05:30:39;;;;;;;5.43;4.80;;;;;;;;;;5093310;28;20052;-72
2022/07/10 05:33:05;;;;;;;6.97;4.70;;;;;;;;;;5092111;28;20052;-72
2022/07/10 05:35:32;;;;;;;4.53;3.75;;;;;;;;;;5093374;28;20099;-72
2022/07/10 05:37:59;;;;;;;4.55;3.85;;;;;;;;;;5093279;28;20048;-72
2022/07/10 05:40:25;;;;;;;5.82;4.00;;;;;;;;;;5093259;28;20055;-72
2022/07/10 05:42:52;;;;;;;3.42;3.03;;;;;;;;;;5091828;28;20557;-72
2022/07/10 05:45:18;;;;;;;3.10;2.80;;;;;;;;;;5078898;28;20043;-72
2022/07/10 05:47:45;;;;;;;3.00;2.73;;;;;;;;;;5093375;28;20457;-72
2022/07/10 05:50:12;;;;;;;2.70;2.50;;;;;;;;;;5092718;28;20101;-72
2022/07/10 05:52:39;;;;;;;4.83;2.60;;;;;;;;;;5093222;28;20281;-72
2022/07/10 05:55:05;;;;;;;2.45;2.25;;;;;;;;;;5093069;28;20683;-72
2022/07/10 05:57:32;;;;;;;4.60;2.80;;;;;;;;;;5091430;28;20044;-72
2022/07/10 05:59:58;;;;;;;2.35;1.95;;;;;;;;;;5093018;28;20048;-72
2022/07/10 06:02:25;;;;;;;3.50;2.58;;;;;;;;;;5093103;28;20044;-72
2022/07/10 06:04:52;;;;;;;2.58;2.38;;;;;;;;;;5092698;28;20097;-72
2022/07/10 06:07:18;;;;;;;3.03;2.83;;;;;;;;;;5092925;28;20048;-72
2022/07/10 06:09:45;;;;;;;4.47;3.17;;;;;;;;;;5092939;28;20048;-72
2022/07/10 06:12:11;;;;;;;4.45;4.05;;;;;;;;;;5092724;28;20079;-72
2022/07/10 06:14:38;;;;;;;4.40;3.90;;;;;;;;;;5092405;28;20048;-73
2022/07/10 06:17:04;;;;;;;4.90;4.45;;;;;;;;;;5091496;28;20056;-73
2022/07/10 06:19:31;;;;;;;4.28;3.83;;;;;;;;;;5092546;28;20052;-73
2022/07/10 06:24:44;;;;;;;4.50;4.10;;;;;;;;;;5092304;28;20168;-73
2022/07/10 06:27:11;;;;;;;4.55;4.15;;;;;;;;;;5092629;28;20049;-73
2022/07/10 06:29:40;;;;;;;4.53;4.13;;;;;;;;;;5092312;28;20043;-73
2022/07/10 06:32:07;;;;;;;5.20;4.70;;;;;;;;;;5092202;28;20090;-73
2022/07/10 06:34:34;;;;;;;4.93;4.53;;;;;;;;;;5092125;28;20129;-73
2022/07/10 06:37:00;;;;;;;5.90;5.03;;;;;;;;;;5092085;28;20300;-73
2022/07/10 06:39:29;;;;;;;5.50;4.88;;;;;;;;;;5092050;28;20484;-73
2022/07/10 06:41:56;;;;;;;5.63;4.85;;;;;;;;;;5092308;28;20048;-73
2022/07/10 06:44:22;;;;;;;6.38;5.78;;;;;;;;;;5092334;28;20108;-73
2022/07/10 06:47:55;;;;;;;12.50;9.18;;;;;;;;;;5092030;28;20047;-74
2022/07/10 06:49:35;;;;;;;13.02;11.23;;;;;;;;;;5091676;28;20055;-74
2022/07/10 06:52:02;;;;;;;13.43;9.73;;;;;;;;;;5091863;28;20052;-74
2022/07/10 06:54:37;;;;;;;8.57;6.13;;;;;;;;;;5091917;28;20487;-74
2022/07/10 06:57:03;;;;;;;5.03;4.53;;;;;;;;;;5091593;28;20052;-73
2022/07/10 06:59:30;;;;;;;6.60;5.47;;;;;;;;;;5091838;28;20105;-73
2022/07/10 07:01:56;;;;;;;6.93;6.18;;;;;;;;;;5091742;28;20048;-73
2022/07/10 07:04:23;;;;;;;6.47;5.87;;;;;;;;;;5090787;28;20446;-73
2022/07/10 07:06:50;;;;;;;4.78;4.38;;;;;;;;;;5092002;28;20048;-73
2022/07/10 07:09:16;;;;;;;3.93;3.63;;;;;;;;;;5091988;28;20048;-73
2022/07/10 07:11:43;;;;;;;4.45;4.05;;;;;;;;;;5091637;28;20284;-72
2022/07/10 07:14:09;;;;;;;4.53;4.13;;;;;;;;;;5091645;28;20450;-72
2022/07/10 07:16:41;;;;;;;4.57;4.20;;;;;;;;;;5091628;28;20040;-73
2022/07/10 07:19:10;;;;;;;5.07;4.00;;;;;;;;;;5091562;28;20044;-73
2022/07/10 07:24:22;;;;;;;5.75;5.13;;;;;;;;;;5091454;28;20051;-70
2022/07/10 07:26:48;;;;;;;5.20;4.75;;;;;;;;;;5091421;28;20121;-73
2022/07/10 07:29:15;;;;;;;5.85;5.32;;;;;;;;;;5091245;28;20101;-73
2022/07/10 07:31:42;;;;;;;6.13;5.53;;;;;;;;;;5091190;28;20097;-73
2022/07/10 07:34:08;;;;;;;5.97;4.93;;;;;;;;;;5091365;28;20123;-73
2022/07/10 07:36:35;;;;;;;4.93;4.43;;;;;;;;;;5091433;28;20052;-74
2022/07/10 07:39:02;;;;;;;7.05;6.35;;;;;;;;;;5091543;28;20048;-75
2022/07/10 07:41:29;;;;;;;8.63;6.78;;;;;;;;;;5087765;28;20468;-72
2022/07/10 07:43:55;;;;;;;10.05;8.02;;;;;;;;;;5070485;28;20065;-72
2022/07/10 07:46:23;;;;;;;6.15;5.63;;;;;;;;;;5070484;28;20117;-72
2022/07/10 07:48:49;;;;;;;4.97;4.07;;;;;;;;;;5078214;28;20070;-73
2022/07/10 07:51:16;;;;;;;4.38;3.90;;;;;;;;;;5094788;28;20109;-73
2022/07/10 07:53:43;;;;;;;4.20;3.90;;;;;;;;;;5093791;28;20044;-72
2022/07/10 07:56:10;;;;;;;3.78;3.17;;;;;;;;;;5093421;28;20129;-70
2022/07/10 07:58:36;;;;;;;3.17;2.97;;;;;;;;;;5093565;28;20437;-71
2022/07/10 08:01:03;;;;;;;3.47;2.60;;;;;;;;;;5093516;28;20052;-70
2022/07/10 08:03:30;;;;;;;3.10;2.90;;;;;;;;;;5093618;28;20048;-70
2022/07/10 08:06:16;;;;;;;2.70;2.50;;;;;;;;;;5092887;28;20076;-70
2022/07/10 08:08:43;;;;;;;3.13;2.78;;;;;;;;;;5093789;28;20046;-70
2022/07/10 08:11:09;;;;;;;3.40;3.00;;;;;;;;;;5093808;28;20048;-70
2022/07/10 08:13:36;;;;;;;4.25;3.85;;;;;;;;;;5091514;28;20052;-72
2022/07/10 08:16:02;;;;;;;3.97;2.92;;;;;;;;;;5093946;28;20445;-72
2022/07/10 08:18:34;;;;;;;3.10;2.80;;;;;;;;;;5094012;28;20050;-72
2022/07/10 08:21:01;;;;;;;2.05;1.90;;;;;;;;;;5093543;28;20373;-73
2022/07/10 08:23:28;;;;;;;2.35;2.15;;;;;;;;;;5093345;28;20446;-73
2022/07/10 08:25:54;;;;;;;4.40;2.10;;;;;;;;;;5094140;28;20052;-72
2022/07/10 08:28:20;;;;;;;2.78;1.88;;;;;;;;;;5093532;28;20101;-74
2022/07/10 08:30:49;;;;;;;1.92;1.83;;;;;;;;;;5093256;28;20113;-72
2022/07/10 08:33:16;;;;;;;;;;;;;;;;;;5093842;28;20498;-71
2022/07/10 08:35:43;;;;;;;2.50;2.00;;;;;;;;;;5093037;28;20385;-71
2022/07/10 08:38:09;;;;;;;2.92;2.10;;;;;;;;;;5093544;28;20037;-71
2022/07/10 08:40:38;;;;;;;;;;;;;;;;;;5093053;28;20048;-75
2022/07/10 08:43:05;;;;;;;2.13;1.92;;;;;;;;;;5091095;28;19928;-72
2022/07/10 08:45:35;;;;;;;2.60;1.95;;;;;;;;;;5093720;28;20094;-70
2022/07/10 08:48:04;;;;;;;2.42;1.83;;;;;;;;;;5093636;28;20462;-75
2022/07/10 08:50:32;;;;;;;1.83;1.73;;;;;;;;;;5089893;28;20096;-73
2022/07/10 08:53:08;;;;;;;2.35;1.95;;;;;;;;;;5092782;28;20055;-76
2022/07/10 08:55:35;;;;;;;2.33;2.13;;;;;;;;;;5092190;28;20883;-74
2022/07/10 08:58:02;;;;;;;2.17;1.98;;;;;;;;;;5093621;28;20469;-73
2022/07/10 09:00:28;;;;;;;2.85;1.90;;;;;;;;;;5092069;28;20113;-73
2022/07/10 09:02:55;;;;;;;;;;;;;;;;;;5093730;28;20097;-73
2022/07/10 09:05:25;;;;;;;2.20;2.00;;;;;;;;;;5093561;28;19927;-73
2022/07/10 09:07:56;;;;;;;2.25;1.80;;;;;;;;;;5093603;28;20117;-73
2022/07/10 09:10:26;;;;;;;1.90;1.80;;;;;;;;;;5093262;28;20135;-73
2022/07/10 09:12:53;;;;;;;2.33;2.13;;;;;;;;;;5093335;28;20052;-74
2022/07/10 09:15:21;;;;;;;3.72;2.15;;;;;;;;;;5090769;28;20044;-74
2022/07/10 09:17:53;;;;;;;2.00;1.60;;;;;;;;;;5092851;28;20043;-74
2022/07/10 09:20:30;;;;;;;1.63;1.50;;;;;;;;;;5092388;28;20067;-76
2022/07/10 09:22:57;;;;;;;2.45;2.00;;;;;;;;;;5092376;28;20052;-76
2022/07/10 09:25:31;;;;;;;3.15;1.58;;;;;;;;;;5092179;28;20097;-75
2022/07/10 09:27:59;;;;;;;2.03;1.73;;;;;;;;;;5092240;28;20161;-75
2022/07/10 09:30:33;;;;;;;2.10;1.80;;;;;;;;;;5092811;28;20044;-75
2022/07/10 09:33:17;;;;;;;1.58;1.48;;;;;;;;;;5092988;28;20075;-75
2022/07/10 09:36:05;;;;;;;2.45;1.60;;;;;;;;;;5092712;28;20052;-75
2022/07/10 09:38:44;;;;;;;1.98;1.88;;;;;;;;;;5092760;28;20048;-76
2022/07/10 09:41:11;;;;;;;2.25;1.55;;;;;;;;;;5093045;28;20117;-76
2022/07/10 09:43:44;;;;;;;2.63;1.60;;;;;;;;;;5093089;28;20056;-74
2022/07/10 09:46:11;;;;;;;2.28;1.80;;;;;;;;;;5092917;28;20093;-74
2022/07/10 09:48:37;;;;;;;2.30;1.50;;;;;;;;;;5091487;28;20461;-73
2022/07/10 09:51:11;;;;;;;2.28;1.85;;;;;;;;;;5092762;28;20048;-74
2022/07/10 09:53:41;;;;;;;4.72;1.88;;;;;;;;;;5092883;28;20464;-74
2022/07/10 09:56:09;;;;;;;2.10;1.88;;;;;;;;;;5092462;28;20101;-76
2022/07/10 09:58:36;;;;;;;2.00;1.80;;;;;;;;;;5092221;28;20052;-75
2022/07/10 10:01:04;;;;;;;2.25;2.10;;;;;;;;;;5092402;28;20075;-76
2022/07/10 10:03:35;;;;;;;1.98;1.85;;;;;;;;;;5089880;28;20495;-75
2022/07/10 10:06:03;;;;;;;2.47;2.08;;;;;;;;;;5092080;28;20044;-78
2022/07/10 10:08:32;;;;;;;2.08;1.85;;;;;;;;;;5092479;28;20044;-78
2022/07/10 10:10:59;;;;;;;1.88;1.70;;;;;;;;;;5092035;28;20048;-78
2022/07/10 10:13:33;;;;;;;2.63;1.77;;;;;;;;;;5092368;28;20138;-75
2022/07/10 10:16:01;;;;;;;5.60;1.90;;;;;;;;;;5091892;28;20052;-77
2022/07/10 10:18:29;;;;;;;2.03;1.83;;;;;;;;;;5092114;28;20048;-77
2022/07/10 10:20:56;;;;;;;2.67;1.80;;;;;;;;;;5091923;28;20056;-77
2022/07/10 10:23:24;;;;;;;1.63;1.50;;;;;;;;;;5092151;28;20085;-76
2022/07/10 10:25:53;;;;;;;2.17;1.50;;;;;;;;;;5091799;28;20048;-75
2022/07/10 10:28:23;;;;;;;2.22;1.75;;;;;;;;;;5091589;28;20048;-76
2022/07/10 10:30:52;;;;;;;2.63;1.95;;;;;;;;;;5092010;28;20074;-75
2022/07/10 10:33:42;;;;;;;1.45;1.35;;;;;;;;;;5091528;28;20048;-76
2022/07/10 10:36:13;;;;;;;1.45;1.35;;;;;;;;;;5091975;28;20040;-73
2022/07/10 10:38:54;;;;;;;1.90;1.10;;;;;;;;;;5091639;28;20051;-75
2022/07/10 10:41:24;;;;;;;1.98;1.20;;;;;;;;;;5091716;28;20048;-75
2022/07/10 10:44:15;;;;;;;1.77;1.33;;;;;;;;;;5091004;28;20055;-75
2022/07/10 10:46:56;;;;;;;1.63;1.30;;;;;;;;;;5081894;28;20048;-73
2022/07/10 10:49:27;;;;;;;2.67;1.55;;;;;;;;;;5090809;28;20152;-73
2022/07/10 10:52:03;;;;;;;2.97;1.40;;;;;;;;;;5091236;28;20425;-74
2022/07/10 10:54:31;;;;;;;1.35;1.10;;;;;;;;;;5090664;28;20131;-74
2022/07/10 10:57:14;;;;;;;1.67;1.00;;;;;;;;;;5091034;28;20086;-74
2022/07/10 10:59:47;;;;;;;2.53;0.95;;;;;;;;;;5091095;28;20553;-75
2022/07/10 11:02:26;;;;;;;1.10;0.98;;;;;;;;;;5077731;28;20040;-76
2022/07/10 11:05:22;;;;;;;1.40;0.90;;;;;;;;;;5091328;28;20101;-74
2022/07/10 11:07:55;;;;;;;0.82;0.60;;;;;;;;;;5082099;28;20112;-74
2022/07/10 11:10:31;;;;;;;1.00;0.68;;;;;;;;;;5090687;28;20101;-74
2022/07/10 11:12:59;;;;;;;0.80;0.80;;;;;;;;;;5090914;28;20044;-75
2022/07/10 11:15:29;;;;;;;0.57;0.55;;;;;;;;;;5088317;28;20054;-75
2022/07/10 11:17:57;;;;;;;2.00;0.73;;;;;;;;;;5090813;28;20048;-73
2022/07/10 11:20:24;;;;;;;1.73;0.65;;;;;;;;;;5089042;28;20044;-73
2022/07/10 11:23:09;;;;;;;1.60;0.40;;;;;;;;;;5091032;28;20043;-75
2022/07/10 11:25:38;;;;;;;;;;;;;;;;;;5080966;28;20047;-76
2022/07/10 11:28:09;;;;;;;1.02;0.70;;;;;;;;;;5094080;28;20010;-75
2022/07/10 11:30:52;;;;;;;1.83;0.70;;;;;;;;;;5095421;28;20052;-76
2022/07/10 11:33:20;;;;;;;1.50;0.57;;;;;;;;;;5095310;28;20086;-76
2022/07/10 11:35:48;;;;;;;1.70;1.17;;;;;;;;;;5094876;28;20058;-76
2022/07/10 11:38:25;;;;;;;0.85;0.70;;;;;;;;;;5095214;28;20105;-75
2022/07/10 11:40:55;;;;;;;1.25;0.70;;;;;;;;;;5094759;28;20047;-73
2022/07/10 11:43:23;;;;;;;2.00;0.70;;;;;;;;;;5091512;28;20055;-73
2022/07/10 11:45:53;;;;;;;0.88;0.63;;;;;;;;;;5093347;28;20040;-72
2022/07/10 11:48:23;;;;;;;0.60;0.60;;;;;;;;;;5093216;28;20441;-73
2022/07/10 11:50:50;;;;;;;0.77;0.60;;;;;;;;;;5093865;28;20446;-73
2022/07/10 11:53:26;;;;;;;0.75;0.75;;;;;;;;;;5094047;28;20510;-73
2022/07/10 11:55:53;;;;;;;0.57;0.57;;;;;;;;;;5094375;28;20051;-73
2022/07/10 11:58:20;;;;;;;1.77;0.85;;;;;;;;;;5094011;28;20058;-75
2022/07/10 12:01:01;;;;;;;1.17;0.90;;;;;;;;;;5094715;28;20388;-73
2022/07/10 12:03:28;;;;;;;2.20;0.70;;;;;;;;;;5093015;28;20048;-75
2022/07/10 12:06:00;;;;;;;0.95;0.88;;;;;;;;;;5093802;28;20127;-75
2022/07/10 12:08:27;;;;;;;1.88;0.90;;;;;;;;;;5093511;28;20055;-75
2022/07/10 12:10:53;;;;;;;2.17;0.60;;;;;;;;;;5093201;28;20573;-75
2022/07/10 12:13:20;;;;;;;1.00;0.90;;;;;;;;;;5095005;28;20058;-75
2022/07/10 12:15:47;;;;;;;2.90;1.10;;;;;;;;;;5094538;28;20043;-75
2022/07/10 12:18:17;;;;;;;1.27;0.88;;;;;;;;;;5094523;28;20044;-75
2022/07/10 12:20:47;;;;;;;0.88;0.77;;;;;;;;;;5094627;28;20139;-75
2022/07/10 12:23:17;;;;;;;0.65;0.65;;;;;;;;;;5094950;28;20052;-75
2022/07/10 12:25:44;;;;;;;0.80;0.70;;;;;;;;;;5094858;28;20097;-75
2022/07/10 12:28:13;;;;;;;2.53;0.80;;;;;;;;;;5094462;28;20043;-75
2022/07/10 12:30:44;;;;;;;1.33;0.82;;;;;;;;;;5094569;28;20052;-75
2022/07/10 12:33:18;;;;;;;0.63;0.63;;;;;;;;;;5094423;28;20052;-75
2022/07/10 12:35:48;;;;;;;1.05;0.90;;;;;;;;;;5094369;28;20058;-75
2022/07/10 12:38:17;;;;;;;0.77;0.77;;;;;;;;;;5094156;28;20097;-75
2022/07/10 12:40:44;;;;;;;0.50;0.50;;;;;;;;;;5094415;28;20455;-75
2022/07/10 12:43:11;;;;;;;0.60;0.60;;;;;;;;;;5092534;28;20048;-74
2022/07/10 12:45:38;;;;;;;1.23;0.70;;;;;;;;;;5094187;28;20040;-76
2022/07/10 12:48:08;;;;;;;0.55;0.50;;;;;;;;;;5093094;28;20468;-74
2022/07/10 12:50:34;;;;;;;1.30;1.00;;;;;;;;;;5093917;28;20060;-76
2022/07/10 12:53:08;;;;;;;1.55;0.70;;;;;;;;;;5094051;28;20052;-70
2022/07/10 12:55:35;;;;;;;0.60;0.60;;;;;;;;;;5093127;28;20173;-76
2022/07/10 12:58:05;;;;;;;1.13;0.60;;;;;;;;;;5093425;28;20044;-74
2022/07/10 13:00:34;;;;;;;0.70;0.70;;;;;;;;;;5093986;28;20485;-75
2022/07/10 13:03:05;;;;;;;0.63;0.60;;;;;;;;;;5093443;28;20067;-75
2022/07/10 13:05:33;;;;;;;1.10;0.60;;;;;;;;;;5093807;28;20048;-75
2022/07/10 13:08:12;;;;;;;0.73;0.55;;;;;;;;;;5092565;28;20047;-74
2022/07/10 13:10:39;;;;;;;1.63;0.80;;;;;;;;;;5093271;28;20052;-75
2022/07/10 13:13:06;;;;;;;3.60;0.98;;;;;;;;;;5093580;28;20121;-74
2022/07/10 13:15:39;;;;;;;0.73;0.70;;;;;;;;;;5093517;28;20458;-74
2022/07/10 13:18:12;;;;;;;1.20;0.75;;;;;;;;;;5093656;28;20117;-70
2022/07/10 13:20:39;;;;;;;0.90;0.80;;;;;;;;;;5093913;28;20416;-71
2022/07/10 13:23:06;;;;;;;0.80;0.80;;;;;;;;;;5093657;28;20040;-71
2022/07/10 13:25:33;;;;;;;1.40;0.82;;;;;;;;;;5093693;28;20044;-71
2022/07/10 13:28:00;;;;;;;1.00;1.00;;;;;;;;;;5093284;28;20044;-71
2022/07/10 13:30:26;;;;;;;1.33;0.70;;;;;;;;;;5093318;28;20085;-71
2022/07/10 13:32:53;;;;;;;1.35;0.80;;;;;;;;;;5093622;28;20059;-74
2022/07/10 13:35:19;;;;;;;0.93;0.70;;;;;;;;;;5093464;28;20180;-73
2022/07/10 13:37:46;;;;;;;0.63;0.63;;;;;;;;;;5093212;28;20487;-72
2022/07/10 13:40:13;;;;;;;0.50;0.50;;;;;;;;;;5093472;28;20518;-70
2022/07/10 13:42:39;;;;;;;0.90;0.70;;;;;;;;;;5092172;28;20048;-71
2022/07/10 13:45:08;;;;;;;0.77;0.50;;;;;;;;;;5092017;28;20040;-71
2022/07/10 13:47:34;;;;;;;0.63;0.63;;;;;;;;;;5090825;28;20474;-71
2022/07/10 13:50:01;;;;;;;1.27;0.93;;;;;;;;;;5091756;28;20097;-71
2022/07/10 13:52:27;;;;;;;0.90;0.70;;;;;;;;;;5093115;28;20102;-71
2022/07/10 13:54:54;;;;;;;0.70;0.70;;;;;;;;;;5093044;28;20040;-74
2022/07/10 13:57:20;;;;;;;0.80;0.63;;;;;;;;;;5092969;28;20445;-71
2022/07/10 13:59:47;;;;;;;1.75;1.00;;;;;;;;;;5093030;28;20442;-72
2022/07/10 14:02:13;;;;;;;1.77;0.68;;;;;;;;;;5092876;28;20533;-72
2022/07/10 14:04:42;;;;;;;0.70;0.70;;;;;;;;;;5092954;28;20047;-72
2022/07/10 14:07:09;;;;;;;1.15;0.80;;;;;;;;;;5092309;28;20044;-70
2022/07/10 14:09:35;;;;;;;0.82;0.70;;;;;;;;;;5091203;28;20105;-71
2022/07/10 14:12:02;;;;;;;0.75;0.63;;;;;;;;;;5091456;28;20047;-72
2022/07/10 14:14:28;;;;;;;0.80;0.80;;;;;;;;;;5091517;28;20101;-72
2022/07/10 14:16:54;;;;;;;0.98;0.70;;;;;;;;;;5089785;28;20102;-72
2022/07/10 14:19:21;;;;;;;0.90;0.80;;;;;;;;;;5091089;28;20044;-72
2022/07/10 14:21:47;;;;;;;0.82;0.60;;;;;;;;;;5088710;28;20052;-72
2022/07/10 14:24:14;;;;;;;0.93;0.60;;;;;;;;;;5091767;28;20076;-72
2022/07/10 14:26:41;;;;;;;2.22;0.60;;;;;;;;;;5091412;28;20040;-72
2022/07/10 14:29:07;;;;;;;3.45;0.57;;;;;;;;;;5091157;28;20055;-71
2022/07/10 14:31:34;;;;;;;2.20;0.60;;;;;;;;;;5090820;28;20048;-74
2022/07/10 14:34:01;;;;;;;0.90;0.80;;;;;;;;;;5091211;28;20483;-73
2022/07/10 14:36:27;;;;;;;0.90;0.85;;;;;;;;;;5091957;28;20085;-73
2022/07/10 14:38:54;;;;;;;0.63;0.50;;;;;;;;;;5091763;28;20803;-73
2022/07/10 14:41:22;;;;;;;0.50;0.50;;;;;;;;;;5091402;28;20048;-72
2022/07/10 14:43:49;;;;;;;0.50;0.50;;;;;;;;;;5091117;28;20483;-72
2022/07/10 14:46:16;;;;;;;0.73;0.60;;;;;;;;;;5091514;28;20117;-72
2022/07/10 14:48:43;;;;;;;0.82;0.47;;;;;;;;;;5091117;28;20412;-73
2022/07/10 14:51:10;;;;;;;2.45;0.85;;;;;;;;;;5091629;28;20086;-73
2022/07/10 14:53:37;;;;;;;0.50;0.50;;;;;;;;;;5091247;28;20048;-72
2022/07/10 14:56:05;;;;;;;1.38;0.70;;;;;;;;;;5090968;28;20044;-73
2022/07/10 14:58:32;;;;;;;3.50;0.88;;;;;;;;;;5079734;28;20086;-72